Time;durP1;ratioP1;P1;durP2;ratioP2;P2;SDS_P1;SDS_P2;PMS_P1;PMS_P2;Temp;Humidity;BMP_temperature;BMP_pressure;BME280_temperature;BME280_humidity;BME280_pressure;Samples;Min_cycle;Max_cycle;Signal;HPM_P1;HPM_P2
2021/06/11 00:01:41;;;;;;;4.40;2.45;;;;;;;13.43;99.89;93101.84;5027418;28;20050;-87
2021/06/11 00:04:07;;;;;;;10.52;2.47;;;;;;;13.39;100.00;93102.53;5027159;28;20081;-86
2021/06/11 00:06:33;;;;;;;5.18;2.80;;;;;;;13.26;100.00;93099.22;5028002;28;20079;-87
2021/06/11 00:09:00;;;;;;;;;;;;;;;13.33;100.00;93105.00;5028203;28;20064;-88
2021/06/11 00:11:26;;;;;;;3.17;2.42;;;;;;;12.67;100.00;93009.88;5027048;28;19932;-88
2021/06/11 00:13:53;;;;;;;3.63;2.67;;;;;;;12.99;100.00;93053.31;5026907;28;20091;-87
2021/06/11 00:16:19;;;;;;;6.80;2.22;;;;;;;13.00;100.00;93059.25;5022263;28;20050;-87
2021/06/11 00:18:47;;;;;;;5.13;2.67;;;;;;;13.27;100.00;93097.41;5008038;28;20498;-88
2021/06/11 00:21:13;;;;;;;6.53;2.65;;;;;;;13.20;100.00;93095.75;5010457;28;20049;-87
2021/06/11 00:23:40;;;;;;;4.30;2.80;;;;;;;13.13;100.00;93089.94;5009705;28;20126;-86
2021/06/11 00:26:24;;;;;;;4.25;2.42;;;;;;;13.09;100.00;93089.63;5010755;28;20602;-93
2021/06/11 00:28:57;;;;;;;3.95;2.88;;;;;;;12.48;100.00;92998.94;5010537;28;20062;-92
2021/06/11 00:50:52;;;;;;;10.30;2.38;;;;;;;12.60;100.00;93030.66;5144928;23;20066;-93
2021/06/11 00:53:18;;;;;;;4.32;2.40;;;;;;;12.51;100.00;93032.00;4977539;28;20051;-96
2021/06/11 00:58:31;;;;;;;5.95;2.60;;;;;;;12.51;100.00;93050.03;4977369;28;20057;-95
2021/06/11 01:00:57;;;;;;;6.45;2.95;;;;;;;12.23;100.00;93018.78;4977570;28;20106;-96
2021/06/11 01:03:24;;;;;;;3.80;2.40;;;;;;;12.34;100.00;93040.41;4977193;28;20414;-96
2021/06/11 01:05:52;;;;;;;4.15;2.40;;;;;;;12.38;100.00;93056.19;4979882;28;20441;-95
2021/06/11 01:08:19;;;;;;;3.92;2.40;;;;;;;12.41;100.00;93079.69;4980606;28;20058;-96
2021/06/11 01:10:47;;;;;;;3.58;1.90;;;;;;;12.25;100.00;93064.91;4977287;28;20052;-96
2021/06/11 01:13:32;;;;;;;4.65;2.75;;;;;;;12.04;100.00;93033.56;4977112;28;20054;-96
2021/06/11 01:15:59;;;;;;;3.00;2.45;;;;;;;12.16;100.00;93049.81;4976371;28;20108;-96
2021/06/11 01:18:25;;;;;;;3.25;1.80;;;;;;;11.90;100.00;93012.38;4976749;28;20051;-95
2021/06/11 01:20:53;;;;;;;5.20;2.92;;;;;;;12.05;100.00;93053.16;4976723;28;20055;-94
2021/06/11 01:23:35;;;;;;;4.47;2.35;;;;;;;12.25;100.00;93080.34;4976720;28;20057;-96
2021/06/11 01:26:22;;;;;;;4.78;3.40;;;;;;;11.91;100.00;93037.09;4976411;28;20085;-96
2021/06/11 01:28:51;;;;;;;3.55;2.45;;;;;;;11.60;100.00;93006.28;4976711;28;20050;-96
2021/06/11 01:31:19;;;;;;;5.10;2.70;;;;;;;11.82;100.00;93044.34;4976189;28;20046;-94
2021/06/11 01:33:49;;;;;;;4.78;2.70;;;;;;;11.65;100.00;93010.75;4976083;28;20434;-96
2021/06/11 01:36:19;;;;;;;8.82;2.50;;;;;;;11.56;100.00;92997.44;4979421;28;20409;-96
2021/06/11 01:38:49;;;;;;;4.25;2.47;;;;;;;11.64;100.00;93011.75;4977488;28;20051;-94
2021/06/11 01:41:19;;;;;;;4.72;2.45;;;;;;;11.96;100.00;93057.00;4976013;28;20147;-95
2021/06/11 01:43:48;;;;;;;3.72;2.42;;;;;;;12.18;100.00;93074.53;4976441;28;20486;-94
2021/06/11 01:46:17;;;;;;;3.83;2.63;;;;;;;12.22;100.00;93070.53;4976180;28;20058;-95
2021/06/11 01:48:47;;;;;;;3.55;2.25;;;;;;;11.77;100.00;93005.63;4976380;28;20101;-96
2021/06/11 01:51:14;;;;;;;4.00;2.50;;;;;;;12.03;100.00;93055.13;4975882;28;20066;-95
2021/06/11 01:53:42;;;;;;;4.15;2.47;;;;;;;11.98;100.00;93044.69;4976513;28;20050;-96
2021/06/11 01:56:12;;;;;;;4.22;2.22;;;;;;;11.85;100.00;93031.03;4976371;28;20065;-96
2021/06/11 01:58:41;;;;;;;3.42;2.60;;;;;;;11.58;100.00;92994.63;4975386;28;20054;-96
2021/06/11 02:01:09;;;;;;;4.93;2.47;;;;;;;11.79;100.00;93033.72;4975462;28;20055;-96
2021/06/11 02:03:37;;;;;;;3.92;2.67;;;;;;;12.06;100.00;93069.38;4976100;28;20043;-94
2021/06/11 02:06:05;;;;;;;4.10;2.38;;;;;;;11.96;100.00;93047.50;4977308;28;20078;-95
2021/06/11 02:08:33;;;;;;;5.10;2.45;;;;;;;11.49;100.00;92989.03;4977467;28;20050;-95
2021/06/11 02:10:59;;;;;;;4.30;2.35;;;;;;;11.74;100.00;93029.22;4975217;28;20047;-95
2021/06/11 02:13:27;;;;;;;3.78;2.40;;;;;;;11.94;100.00;93062.38;4975559;28;20051;-95
2021/06/11 02:15:56;;;;;;;4.70;2.65;;;;;;;11.64;100.00;93027.19;4975497;28;20073;-94
2021/06/11 02:18:24;;;;;;;6.05;2.75;;;;;;;11.65;100.00;93018.47;4975219;28;20138;-96
2021/06/11 02:20:52;;;;;;;3.58;2.60;;;;;;;11.76;100.00;93027.22;4975248;28;20061;-96
2021/06/11 02:23:19;;;;;;;3.80;2.15;;;;;;;11.94;100.00;93059.81;4975629;28;20133;-95
2021/06/11 02:25:45;;;;;;;3.25;2.50;;;;;;;11.88;100.00;93055.53;4975521;28;20516;-94
2021/06/11 02:28:16;;;;;;;5.95;2.50;;;;;;;11.44;100.00;92996.63;4975386;28;20065;-95
2021/06/11 02:30:42;;;;;;;3.50;2.30;;;;;;;11.77;100.00;93049.38;4975445;28;20047;-95
2021/06/11 02:33:11;;;;;;;2.88;2.00;;;;;;;11.66;100.00;93039.84;4975578;28;20078;-96
2021/06/11 02:35:38;;;;;;;3.38;1.80;;;;;;;11.62;100.00;93035.13;4976410;28;20050;-95
2021/06/11 02:38:04;;;;;;;2.78;1.92;;;;;;;11.72;100.00;93070.59;4978562;28;20058;-95
2021/06/11 02:40:31;;;;;;;5.57;2.30;;;;;;;11.15;100.00;93001.56;4974948;28;20106;-94
2021/06/11 02:43:03;;;;;;;3.92;2.20;;;;;;;11.22;100.00;93015.88;4975538;28;20557;-96
2021/06/11 02:45:33;;;;;;;4.28;2.53;;;;;;;11.27;100.00;93030.66;4975927;28;20046;-95
2021/06/11 02:48:10;;;;;;;3.67;2.22;;;;;;;11.34;100.00;93039.06;4974982;28;20129;-95
2021/06/11 02:50:42;;;;;;;3.13;1.70;;;;;;;11.48;100.00;93049.97;4975035;28;20051;-96
2021/06/11 02:53:10;;;;;;;5.45;2.83;;;;;;;10.90;100.00;92984.47;4975106;28;20047;-96
2021/06/11 02:55:40;;;;;;;3.75;2.15;;;;;;;11.39;100.00;93056.41;4975133;28;20492;-94
2021/06/11 02:58:13;;;;;;;4.00;2.55;;;;;;;11.33;100.00;93047.00;4976463;28;20478;-95
2021/06/11 03:00:41;;;;;;;4.75;2.45;;;;;;;11.30;100.00;93050.78;4975232;28;20063;-95
2021/06/11 03:03:13;;;;;;;4.38;2.40;;;;;;;11.58;100.00;93089.81;4974634;28;20426;-95
2021/06/11 03:05:43;;;;;;;5.20;2.55;;;;;;;11.28;100.00;93045.09;4975648;28;20062;-96
2021/06/11 03:08:12;;;;;;;4.70;3.00;;;;;;;11.19;100.00;93026.63;4979141;28;20482;-96
2021/06/11 03:10:44;;;;;;;5.53;2.45;;;;;;;11.07;100.00;93015.50;4978275;28;20383;-96
2021/06/11 03:13:11;;;;;;;5.25;2.85;;;;;;;11.54;100.00;93086.91;4976329;28;20058;-94
2021/06/11 03:15:38;;;;;;;3.75;2.10;;;;;;;11.39;100.00;93071.06;4975014;28;20062;-96
2021/06/11 03:18:08;;;;;;;4.45;2.40;;;;;;;11.50;100.00;93089.09;4974484;28;20112;-95
2021/06/11 03:20:39;;;;;;;7.88;3.35;;;;;;;11.00;100.00;93014.78;4974575;28;20108;-95
2021/06/11 03:23:12;;;;;;;4.88;2.42;;;;;;;11.49;100.00;93092.69;4975008;28;20058;-95
2021/06/11 03:25:43;;;;;;;4.25;2.50;;;;;;;11.30;100.00;93065.44;4978416;28;20061;-96
2021/06/11 03:28:13;;;;;;;4.78;3.00;;;;;;;11.30;100.00;93070.59;4975797;28;20059;-95
2021/06/11 03:30:46;;;;;;;6.18;2.45;;;;;;;11.24;100.00;93054.22;4980518;28;20082;-94
2021/06/11 03:33:17;;;;;;;3.55;2.50;;;;;;;11.22;100.00;93054.44;4975799;28;20078;-95
2021/06/11 03:35:51;;;;;;;5.53;2.63;;;;;;;11.26;100.00;93052.25;4975256;28;20449;-94
2021/06/11 03:38:23;;;;;;;5.80;2.72;;;;;;;11.60;100.00;93091.19;4978942;28;20818;-96
2021/06/11 03:40:50;;;;;;;4.15;2.90;;;;;;;11.62;100.00;93098.69;4977592;28;20073;-96
2021/06/11 03:43:16;;;;;;;5.65;2.88;;;;;;;11.63;100.00;93092.53;4974862;28;20047;-96
2021/06/11 03:45:44;;;;;;;6.57;2.63;;;;;;;11.30;100.00;93043.06;4974535;28;20054;-96
2021/06/11 03:48:12;;;;;;;3.88;2.83;;;;;;;11.66;100.00;93093.88;4975004;28;20047;-95
2021/06/11 03:50:42;;;;;;;4.30;3.35;;;;;;;11.30;100.00;93039.72;4974343;28;20066;-95
2021/06/11 03:53:10;;;;;;;3.70;2.35;;;;;;;11.47;100.00;93050.19;4974796;28;20050;-95
2021/06/11 03:55:43;;;;;;;4.40;2.50;;;;;;;11.50;100.00;93042.81;4974345;28;20049;-95
2021/06/11 03:58:13;;;;;;;8.02;3.10;;;;;;;11.56;100.00;93042.94;4976107;28;20051;-95
2021/06/11 04:00:43;;;;;;;5.78;3.20;;;;;;;11.68;100.00;93050.69;4979747;28;20054;-96
2021/06/11 04:03:09;;;;;;;7.97;2.78;;;;;;;11.69;100.00;93047.13;4977295;28;20047;-94
2021/06/11 04:05:37;;;;;;;5.90;3.15;;;;;;;11.57;100.00;93017.00;4978478;28;20287;-95
2021/06/11 04:08:06;;;;;;;7.53;3.90;;;;;;;11.67;100.00;93013.13;4980968;28;20525;-95
2021/06/11 04:10:36;;;;;;;9.75;3.70;;;;;;;12.13;100.00;93081.13;4977376;28;20050;-95
2021/06/11 04:13:08;;;;;;;6.63;4.10;;;;;;;12.21;100.00;93071.53;4977830;28;20417;-94
2021/06/11 04:15:36;;;;;;;4.85;3.60;;;;;;;12.14;100.00;93054.38;4979606;28;20494;-93
2021/06/11 04:18:09;;;;;;;4.53;3.03;;;;;;;12.50;100.00;93097.41;4979746;28;20123;-95
2021/06/11 04:20:36;;;;;;;5.22;3.63;;;;;;;12.48;100.00;93077.00;4979505;28;20441;-95
2021/06/11 04:23:06;;;;;;;4.15;2.75;;;;;;;12.15;100.00;93024.28;4979077;28;20089;-96
2021/06/11 04:25:34;;;;;;;4.38;3.33;;;;;;;12.41;100.00;93048.03;4966043;28;20050;-95
2021/06/11 04:28:01;;;;;;;6.60;3.47;;;;;;;12.66;100.00;93073.53;4977800;28;20059;-94
2021/06/11 04:30:30;;;;;;;3.58;2.45;;;;;;;12.14;100.00;92984.09;4978182;28;20043;-95
2021/06/11 04:32:56;;;;;;;9.57;2.88;;;;;;;12.83;100.00;93076.19;4978374;28;20047;-95
2021/06/11 04:35:24;;;;;;;3.45;2.08;;;;;;;13.03;100.00;93092.31;4977050;28;20074;-94
2021/06/11 04:37:50;;;;;;;4.10;2.65;;;;;;;12.96;100.00;93070.00;4980481;28;20054;-94
2021/06/11 04:40:17;;;;;;;6.10;3.35;;;;;;;12.48;100.00;92991.22;4977284;28;20053;-96
2021/06/11 04:42:44;;;;;;;3.90;3.05;;;;;;;12.89;100.00;93037.63;4977732;28;20106;-95
2021/06/11 04:45:11;;;;;;;5.38;3.33;;;;;;;13.23;100.00;93069.50;4979099;28;20114;-96
2021/06/11 04:47:39;;;;;;;6.57;3.60;;;;;;;13.06;100.00;93037.72;4980236;28;20054;-95
2021/06/11 04:50:07;;;;;;;5.57;3.17;;;;;;;13.16;100.00;93039.69;4982357;28;20414;-93
2021/06/11 04:52:33;;;;;;;7.18;4.75;;;;;;;13.47;100.00;93072.03;4978650;28;20124;-95
2021/06/11 04:55:00;;;;;;;6.45;3.47;;;;;;;13.46;100.00;93056.72;4979214;28;20065;-95
2021/06/11 04:57:26;;;;;;;11.32;4.53;;;;;;;13.48;100.00;93057.34;4981523;28;20043;-96
2021/06/11 04:59:53;;;;;;;11.18;4.63;;;;;;;13.71;100.00;93066.75;4978131;28;20050;-95
2021/06/11 05:02:19;;;;;;;9.38;4.20;;;;;;;13.72;100.00;93057.22;4978853;28;20065;-96
2021/06/11 05:04:47;;;;;;;8.70;4.85;;;;;;;14.22;100.00;93098.81;4976387;28;20317;-95
2021/06/11 05:07:13;;;;;;;11.90;5.22;;;;;;;13.95;100.00;93043.41;4980838;28;20047;-94
2021/06/11 05:09:40;;;;;;;10.88;5.28;;;;;;;14.27;99.79;93083.41;4978623;28;20126;-93
2021/06/11 05:12:07;;;;;;;9.93;5.32;;;;;;;14.52;100.00;93101.06;4977003;28;20466;-93
2021/06/11 05:14:33;;;;;;;9.07;5.50;;;;;;;14.40;100.00;93070.13;4976810;28;20402;-96
2021/06/11 05:17:00;;;;;;;9.52;4.35;;;;;;;14.45;97.88;93058.31;4978056;28;20378;-95
2021/06/11 05:19:27;;;;;;;12.15;4.22;;;;;;;14.82;98.07;93084.44;4988835;28;20043;-95
2021/06/11 05:21:55;;;;;;;8.55;4.95;;;;;;;14.90;98.75;93091.00;4978567;28;20050;-96
2021/06/11 05:24:21;;;;;;;10.88;5.30;;;;;;;14.77;99.07;93047.41;4977243;28;20105;-96
2021/06/11 05:26:48;;;;;;;8.32;5.15;;;;;;;14.75;98.44;93036.50;4976369;28;20062;-95
2021/06/11 05:29:14;;;;;;;11.75;5.35;;;;;;;15.18;97.65;93089.28;4977039;28;20105;-94
2021/06/11 05:31:42;;;;;;;8.65;4.65;;;;;;;15.45;96.32;93098.09;4978501;28;20047;-94
2021/06/11 05:34:08;;;;;;;9.30;4.75;;;;;;;15.48;95.88;93069.16;4978251;28;20062;-94
2021/06/11 05:36:35;;;;;;;9.23;4.88;;;;;;;15.59;97.14;93070.81;4977862;28;20113;-94
2021/06/11 05:39:03;;;;;;;16.08;5.35;;;;;;;15.42;97.02;93045.00;4977107;28;20486;-93
2021/06/11 05:41:29;;;;;;;10.82;5.25;;;;;;;15.96;96.74;93108.22;4976241;28;20383;-93
2021/06/11 05:43:56;;;;;;;9.85;4.22;;;;;;;16.05;96.34;93110.38;4975606;28;20063;-94
2021/06/11 05:46:22;;;;;;;;;;;;;;;16.23;96.88;93112.59;4975889;28;20066;-92
2021/06/11 05:48:48;;;;;;;16.00;4.95;;;;;;;16.36;95.80;93105.44;4976090;28;20257;-93
2021/06/11 05:51:15;;;;;;;8.85;4.50;;;;;;;15.93;93.39;93030.22;4975734;28;20453;-95
2021/06/11 05:53:41;;;;;;;8.50;3.90;;;;;;;16.56;93.28;93102.19;4975187;28;20061;-92
2021/06/11 05:56:09;;;;;;;8.15;4.57;;;;;;;16.16;92.57;93014.34;4975470;28;20067;-94
2021/06/11 05:58:36;;;;;;;8.02;3.80;;;;;;;16.93;90.68;93082.44;4975691;28;20051;-91
2021/06/11 06:01:03;;;;;;;5.80;2.97;;;;;;;17.11;88.29;93065.69;4975987;28;20043;-94
2021/06/11 06:03:30;;;;;;;5.25;2.85;;;;;;;17.37;86.80;93068.38;4976388;28;20510;-95
2021/06/11 06:05:56;;;;;;;7.43;2.58;;;;;;;17.93;86.12;93108.50;4975621;28;20051;-96
2021/06/11 06:08:22;;;;;;;6.20;3.08;;;;;;;18.26;83.78;93113.50;4978289;28;20397;-93
2021/06/11 06:10:49;;;;;;;3.38;1.90;;;;;;;18.58;81.99;93125.47;4975798;28;20054;-96
2021/06/11 06:13:16;;;;;;;5.80;2.40;;;;;;;18.72;80.24;93096.28;4976543;28;20046;-94
2021/06/11 06:15:44;;;;;;;2.97;1.90;;;;;;;18.93;79.02;93069.19;4978259;28;20457;-94
2021/06/11 06:18:12;;;;;;;7.45;2.15;;;;;;;19.61;76.79;93119.22;4978192;28;20074;-96
2021/06/11 06:20:39;;;;;;;5.35;2.08;;;;;;;19.50;75.15;93082.00;4975581;28;20593;-96
2021/06/11 06:23:05;;;;;;;11.07;3.65;;;;;;;20.01;74.34;93095.03;4978156;28;20065;-96
2021/06/11 06:25:32;;;;;;;3.53;2.88;;;;;;;20.23;72.02;93075.59;4977848;28;20138;-94
2021/06/11 06:27:58;;;;;;;5.13;2.97;;;;;;;20.22;70.59;93037.53;4980370;28;20550;-96
2021/06/11 06:30:26;;;;;;;7.00;3.05;;;;;;;20.65;71.10;93055.13;4980725;28;20047;-94
2021/06/11 06:32:53;;;;;;;4.00;2.63;;;;;;;20.68;70.30;93093.72;4977624;28;20047;-96
2021/06/11 06:35:20;;;;;;;5.80;2.75;;;;;;;20.68;70.55;93080.66;4976804;28;20051;-96
2021/06/11 06:37:46;;;;;;;5.40;2.88;;;;;;;21.02;69.82;93072.00;4978565;28;20105;-95
2021/06/11 06:40:13;;;;;;;3.28;2.17;;;;;;;20.98;67.13;93025.84;4984230;28;20059;-95
2021/06/11 06:42:41;;;;;;;4.47;2.40;;;;;;;20.65;68.68;93060.34;4979149;28;20077;-95
2021/06/11 06:45:12;;;;;;;4.03;2.38;;;;;;;20.67;70.03;93105.22;4975702;28;20043;-94
2021/06/11 06:47:43;;;;;;;4.72;2.75;;;;;;;19.84;71.04;93066.69;4974839;28;20520;-94
2021/06/11 06:50:10;;;;;;;4.80;2.47;;;;;;;20.25;71.95;93089.13;4973974;28;20509;-96
2021/06/11 06:52:37;;;;;;;2.85;2.00;;;;;;;21.31;70.16;93114.78;4978578;28;20086;-93
2021/06/11 06:55:03;;;;;;;3.95;2.15;;;;;;;21.28;67.23;93066.47;4957546;29;20055;-96
2021/06/11 06:57:30;;;;;;;4.70;2.88;;;;;;;21.86;65.63;93103.91;4958745;29;20062;-96
2021/06/11 06:59:56;;;;;;;2.70;1.90;;;;;;;21.79;63.83;93059.06;4959776;29;20051;-95
2021/06/11 07:02:23;;;;;;;4.65;2.30;;;;;;;21.90;64.60;93088.47;4955211;28;20106;-96
2021/06/11 07:04:50;;;;;;;6.95;1.42;;;;;;;21.25;61.95;93061.03;4955712;29;20050;-94
2021/06/11 07:07:17;;;;;;;1.98;1.50;;;;;;;20.80;64.20;93090.75;4956421;29;20043;-93
2021/06/11 07:09:44;;;;;;;2.45;1.58;;;;;;;20.54;65.74;93075.31;4955221;29;20047;-94
2021/06/11 07:12:11;;;;;;;3.78;1.75;;;;;;;21.23;63.42;93106.50;4955340;29;20048;-93
2021/06/11 07:14:38;;;;;;;2.70;1.77;;;;;;;21.28;64.52;93100.44;4955189;29;20043;-93
2021/06/11 07:17:05;;;;;;;2.15;1.60;;;;;;;20.32;64.54;93042.63;4955179;29;20052;-94
2021/06/11 07:19:32;;;;;;;2.70;1.80;;;;;;;20.69;63.80;93097.91;4954842;29;20134;-95
2021/06/11 07:21:59;;;;;;;2.58;1.77;;;;;;;20.39;67.14;93055.38;4955197;28;20051;-95
2021/06/11 07:24:26;;;;;;;2.53;1.63;;;;;;;20.32;66.02;93021.78;4956480;29;20048;-94
2021/06/11 07:26:52;;;;;;;4.00;2.00;;;;;;;20.92;66.23;93088.56;4957170;29;20083;-95
2021/06/11 07:29:19;;;;;;;2.40;1.70;;;;;;;20.82;64.23;93076.38;4955300;29;20471;-95
2021/06/11 07:31:45;;;;;;;3.03;1.92;;;;;;;20.53;64.30;93069.34;4954878;29;20090;-94
2021/06/11 07:34:12;;;;;;;2.10;1.08;;;;;;;21.02;63.09;93063.41;4958126;28;20379;-93
2021/06/11 07:36:38;;;;;;;3.50;2.03;;;;;;;20.96;65.36;93044.38;4959175;28;20417;-95
2021/06/11 07:39:06;;;;;;;2.83;1.65;;;;;;;21.63;62.04;93087.97;4960457;28;20055;-95
2021/06/11 07:41:33;;;;;;;4.07;2.03;;;;;;;20.91;63.33;93042.63;4958441;29;20483;-94
2021/06/11 07:43:59;;;;;;;2.15;1.25;;;;;;;20.54;64.71;93042.19;4959120;29;20047;-96
2021/06/11 07:46:25;;;;;;;3.22;1.98;;;;;;;21.16;65.86;93025.09;4964145;28;20055;-93
2021/06/11 07:48:52;;;;;;;4.28;2.08;;;;;;;21.47;64.60;93061.28;4962979;29;20062;-95
2021/06/11 07:51:19;;;;;;;3.72;1.95;;;;;;;21.76;64.14;93088.41;4963049;29;20047;-95
2021/06/11 07:53:46;;;;;;;3.40;2.35;;;;;;;21.46;65.00;93070.19;4961065;29;20061;-94
2021/06/11 07:56:14;;;;;;;3.88;2.08;;;;;;;21.45;64.28;93078.28;4960233;29;20062;-95
2021/06/11 07:58:41;;;;;;;2.55;1.77;;;;;;;21.19;63.32;93060.31;4958841;28;20047;-94
2021/06/11 08:01:08;;;;;;;2.50;1.75;;;;;;;21.17;58.84;93055.41;4958654;28;20059;-94
2021/06/11 08:03:34;;;;;;;3.35;1.63;;;;;;;20.90;59.54;93063.78;4958695;28;20102;-96
2021/06/11 08:06:00;;;;;;;2.42;1.50;;;;;;;20.70;61.36;92997.69;4958895;29;20371;-96
2021/06/11 08:08:27;;;;;;;2.90;1.85;;;;;;;21.45;59.22;93075.69;4965357;29;20114;-96
2021/06/11 08:10:53;;;;;;;2.78;1.45;;;;;;;20.87;60.25;93098.28;4960428;29;20059;-96
2021/06/11 08:13:21;;;;;;;3.35;1.85;;;;;;;20.99;59.58;93061.34;4959012;29;20482;-95
2021/06/11 08:15:48;;;;;;;3.65;1.67;;;;;;;21.09;59.61;93019.44;4958641;29;20057;-96
2021/06/11 08:18:14;;;;;;;2.35;1.67;;;;;;;21.72;61.10;93072.47;4958423;29;20098;-94
2021/06/11 08:20:41;;;;;;;2.67;1.88;;;;;;;22.06;59.73;93039.31;4959779;29;20055;-95
2021/06/11 08:23:07;;;;;;;3.35;1.60;;;;;;;22.60;53.23;93095.78;4959592;28;20087;-93
2021/06/11 08:25:33;;;;;;;2.08;1.40;;;;;;;22.45;54.33;93088.94;4959439;29;20055;-93
2021/06/11 08:28:00;;;;;;;3.30;2.00;;;;;;;22.85;57.81;93078.09;4957909;29;20058;-94
2021/06/11 08:30:29;;;;;;;3.00;1.42;;;;;;;23.14;52.27;93050.84;4957932;29;20051;-96
2021/06/11 08:32:57;;;;;;;5.32;1.52;;;;;;;23.41;55.61;93010.72;4958576;29;20502;-96
2021/06/11 08:35:23;;;;;;;6.88;2.42;;;;;;;24.25;53.26;93064.78;4962309;28;20102;-96
2021/06/11 08:37:54;;;;;;;4.13;2.00;;;;;;;24.42;52.68;93075.38;4966724;28;20070;-96
2021/06/11 08:40:27;;;;;;;2.42;1.13;;;;;;;24.13;51.27;92989.22;4965436;28;20055;-96
2021/06/11 08:43:00;;;;;;;2.72;1.48;;;;;;;23.76;51.09;93058.19;4962267;28;20054;-95
2021/06/11 08:45:29;;;;;;;2.25;1.25;;;;;;;23.90;51.44;93031.16;4964419;28;20062;-95
2021/06/11 08:47:55;;;;;;;3.10;1.40;;;;;;;24.47;51.40;93031.69;4968769;29;20054;-95
2021/06/11 08:50:26;;;;;;;2.13;1.20;;;;;;;24.28;49.13;93072.03;4960301;29;20115;-94
2021/06/11 08:52:53;;;;;;;2.65;1.10;;;;;;;24.13;49.86;93055.59;4959977;28;20553;-96
2021/06/11 08:55:20;;;;;;;2.33;1.35;;;;;;;24.74;48.86;93057.00;4979452;28;20104;-94
2021/06/11 08:57:57;;;;;;;4.05;1.83;;;;;;;25.05;46.94;93019.41;4985243;28;20053;-96
2021/06/11 09:00:32;;;;;;;2.20;1.40;;;;;;;25.12;46.56;92976.16;4984712;28;20124;-95
2021/06/11 09:03:19;;;;;;;2.58;1.67;;;;;;;25.41;48.80;92986.06;4988051;28;20114;-96
2021/06/11 09:05:48;;;;;;;2.25;1.40;;;;;;;25.76;45.99;93035.31;4983809;28;20070;-96
2021/06/11 09:08:20;;;;;;;2.53;1.30;;;;;;;25.12;48.22;93000.56;4988265;28;20054;-96
2021/06/11 09:10:49;;;;;;;2.28;1.40;;;;;;;25.27;47.55;93049.31;4289952;28;20001456;-96
2021/06/11 09:13:27;;;;;;;2.20;1.08;;;;;;;25.61;45.95;93045.22;4981306;28;20055;-96
2021/06/11 09:16:09;;;;;;;2.78;1.40;;;;;;;25.16;46.76;93050.66;4976600;28;20096;-96
2021/06/11 09:18:44;;;;;;;2.15;1.63;;;;;;;24.36;51.09;93052.97;4972067;28;20046;-96
2021/06/11 09:21:31;;;;;;;2.50;1.70;;;;;;;23.73;52.00;92984.59;4976416;28;20039;-95
2021/06/11 09:24:18;;;;;;;2.47;1.58;;;;;;;24.06;51.44;93010.59;4982875;28;20491;-93
2021/06/11 09:27:04;;;;;;;2.63;1.48;;;;;;;23.59;52.39;93008.25;4980250;28;20141;-95
2021/06/11 09:29:38;;;;;;;2.33;1.40;;;;;;;22.97;53.30;93010.28;4981317;28;20046;-94
2021/06/11 09:32:19;;;;;;;2.83;1.50;;;;;;;23.28;54.08;93016.75;4978878;28;20058;-94
2021/06/11 09:34:47;;;;;;;3.55;1.85;;;;;;;23.90;53.08;93049.53;4978665;28;20061;-95
2021/06/11 09:37:15;;;;;;;3.05;1.35;;;;;;;24.05;52.03;93005.63;4976741;28;20043;-94
2021/06/11 09:39:47;;;;;;;2.65;1.60;;;;;;;24.32;50.53;93001.34;4981332;28;20488;-94
2021/06/11 09:42:27;;;;;;;3.13;1.67;;;;;;;24.37;49.61;92956.59;4980021;28;20054;-96
2021/06/11 09:45:01;;;;;;;3.00;1.55;;;;;;;25.14;48.85;93019.47;4985723;28;20070;-94
2021/06/11 09:47:33;;;;;;;4.45;1.60;;;;;;;25.43;46.72;92994.44;4993804;28;20047;-96
2021/06/11 09:50:11;;;;;;;1.80;1.20;;;;;;;25.85;47.01;92991.38;4987583;28;20046;-96
2021/06/11 09:53:02;;;;;;;2.00;1.30;;;;;;;24.99;46.81;92948.94;4980841;28;20061;-96
2021/06/11 09:58:59;;;;;;;2.42;1.20;;;;;;;25.18;44.99;92940.78;4936680;29;20066;-96
2021/06/11 10:01:33;;;;;;;2.42;1.48;;;;;;;24.78;46.23;92968.66;4959988;29;20074;-95
2021/06/11 10:04:02;;;;;;;2.17;1.40;;;;;;;25.43;46.15;92978.66;4958890;29;20051;-94
2021/06/11 10:06:32;;;;;;;2.22;1.33;;;;;;;25.27;46.25;92961.81;4959885;28;20069;-95
2021/06/11 10:09:15;;;;;;;3.90;1.80;;;;;;;26.00;45.90;92947.22;4960788;29;20233;-95
2021/06/11 10:11:43;;;;;;;2.20;1.33;;;;;;;25.72;44.24;92964.16;4957136;28;20051;-93
2021/06/11 10:14:23;;;;;;;2.47;1.50;;;;;;;24.76;43.41;92949.78;4957611;29;20103;-96
2021/06/11 10:17:21;;;;;;;1.98;1.33;;;;;;;25.28;44.59;92929.97;4957481;29;20047;-95
2021/06/11 10:19:57;;;;;;;2.45;1.35;;;;;;;25.55;42.89;92922.09;4961183;28;20399;-95
2021/06/11 10:22:29;;;;;;;2.80;1.10;;;;;;;24.92;42.66;92912.59;4965917;29;20505;-95
2021/06/11 10:24:57;;;;;;;2.30;1.30;;;;;;;24.33;40.06;92989.75;4958143;28;20055;-95
2021/06/11 10:27:45;;;;;;;2.28;1.52;;;;;;;24.55;42.55;92955.59;4919929;29;20074;-95
2021/06/11 10:30:15;;;;;;;2.25;1.20;;;;;;;25.00;41.31;92980.16;4957212;28;20418;-95
2021/06/11 10:32:46;;;;;;;2.63;1.23;;;;;;;24.43;44.93;92942.25;4957789;28;20431;-93
2021/06/11 10:35:53;;;;;;;2.83;1.33;;;;;;;24.68;45.62;92971.53;4959209;29;20051;-94
2021/06/11 10:38:38;;;;;;;2.60;1.23;;;;;;;24.27;44.87;92950.56;4949908;28;20094;-95
2021/06/11 10:41:07;;;;;;;2.42;1.25;;;;;;;24.74;46.60;92970.31;4962207;29;20051;-95
2021/06/11 10:43:38;;;;;;;2.72;1.50;;;;;;;23.87;46.08;92939.94;4960945;28;20054;-96
2021/06/11 10:46:33;;;;;;;4.85;1.50;;;;;;;23.86;48.84;93014.47;4972839;28;20138;-95
2021/06/11 10:49:24;;;;;;;7.03;1.83;;;;;;;23.90;48.58;92981.34;4979403;28;20054;-95
2021/06/11 10:58:34;;;;;;;2.25;1.48;;;;;;;24.15;47.34;92924.84;4985446;23;20506;-87
2021/06/11 11:01:22;;;;;;;2.63;1.38;;;;;;;24.57;45.62;92973.66;4970330;28;20141;-88
2021/06/11 11:03:49;;;;;;;2.75;1.52;;;;;;;24.28;46.04;92948.69;4970822;28;20178;-87
2021/06/11 11:06:26;;;;;;;3.00;1.38;;;;;;;24.26;45.50;92948.97;4970663;28;20051;-87
2021/06/11 11:08:58;;;;;;;2.60;1.20;;;;;;;24.08;45.35;92924.53;4972867;28;20046;-88
2021/06/11 11:11:47;;;;;;;2.10;1.52;;;;;;;24.13;46.95;92969.00;4974194;28;20491;-87
2021/06/11 11:14:42;;;;;;;2.00;1.30;;;;;;;23.74;47.94;93004.50;4974326;28;20518;-85
2021/06/11 11:17:11;;;;;;;2.33;1.20;;;;;;;23.12;49.08;92980.38;4974765;28;20158;-86
2021/06/11 11:19:49;;;;;;;1.60;1.05;;;;;;;23.00;47.77;92953.94;4974346;28;20191;-86
2021/06/11 11:22:27;;;;;;;2.92;1.38;;;;;;;22.43;52.27;93005.47;4974209;28;20502;-86
2021/06/11 11:25:00;;;;;;;2.15;1.50;;;;;;;21.02;55.34;93014.53;4974139;28;20058;-90
2021/06/11 11:27:33;;;;;;;3.20;1.23;;;;;;;20.28;56.99;93013.72;4974017;28;20051;-86
2021/06/11 11:30:00;;;;;;;1.92;1.10;;;;;;;19.63;58.45;93009.53;4973574;28;20510;-87
2021/06/11 11:32:28;;;;;;;5.53;1.63;;;;;;;18.99;60.63;93014.50;4973656;28;20054;-87
2021/06/11 11:34:55;;;;;;;2.85;1.23;;;;;;;18.83;62.70;93017.16;4973461;28;20517;-86
2021/06/11 11:37:21;;;;;;;1.73;0.82;;;;;;;18.32;64.72;92971.28;4973954;28;20059;-85
2021/06/11 11:39:47;;;;;;;2.47;1.30;;;;;;;18.01;67.57;92930.50;4973704;28;20051;-84
2021/06/11 11:42:16;;;;;;;1.48;0.90;;;;;;;18.22;66.05;92993.66;4974211;28;20058;-85
2021/06/11 11:44:44;;;;;;;1.48;1.20;;;;;;;18.15;67.15;92993.16;4973472;28;20418;-86
2021/06/11 11:47:10;;;;;;;1.90;1.10;;;;;;;18.09;65.07;93004.59;4976447;28;20059;-83
2021/06/11 11:49:37;;;;;;;2.85;1.77;;;;;;;17.98;67.28;93006.38;4992967;28;20144;-83
2021/06/11 11:52:04;;;;;;;1.40;0.98;;;;;;;17.99;68.65;93007.94;4992702;28;20047;-82
2021/06/11 11:54:32;;;;;;;4.10;1.27;;;;;;;17.93;69.94;93014.97;4993134;28;20046;-84
2021/06/11 11:56:58;;;;;;;4.47;1.40;;;;;;;18.23;71.92;93012.63;4992858;28;20054;-83
2021/06/11 11:59:25;;;;;;;2.05;1.25;;;;;;;18.47;72.55;93002.44;4982052;28;20062;-83
2021/06/11 12:01:52;;;;;;;2.60;1.75;;;;;;;18.75;72.40;93005.47;4966128;28;20125;-83
2021/06/11 12:04:19;;;;;;;2.15;1.20;;;;;;;19.01;68.13;93012.41;4971797;28;20051;-82
2021/06/11 12:06:45;;;;;;;2.15;0.75;;;;;;;19.22;69.62;93000.88;4973254;28;20097;-81
2021/06/11 12:09:12;;;;;;;2.38;1.30;;;;;;;19.32;69.71;92986.25;4962363;28;20063;-83
2021/06/11 12:11:39;;;;;;;1.23;0.95;;;;;;;19.65;67.89;93010.03;4953724;28;20492;-82
2021/06/11 12:14:05;;;;;;;1.65;0.88;;;;;;;19.94;62.22;92998.09;4953997;28;20059;-83